sensor_id;sensor_type;location;lat;lon;timestamp;P1;durP1;ratioP1;P2;durP2;ratioP2
57313;SDS011;53202;50.976;18.216;2023-06-26T00:02:23;17.00;;;9.30;;
57313;SDS011;53202;50.976;18.216;2023-06-26T00:04:49;13.20;;;8.70;;
57313;SDS011;53202;50.976;18.216;2023-06-26T00:07:19;17.30;;;9.30;;
57313;SDS011;53202;50.976;18.216;2023-06-26T00:09:46;14.80;;;9.30;;
57313;SDS011;53202;50.976;18.216;2023-06-26T00:12:12;13.10;;;9.00;;
57313;SDS011;53202;50.976;18.216;2023-06-26T00:14:38;11.90;;;8.90;;
57313;SDS011;53202;50.976;18.216;2023-06-26T00:17:04;11.00;;;8.40;;
57313;SDS011;53202;50.976;18.216;2023-06-26T00:19:30;12.30;;;8.80;;
57313;SDS011;53202;50.976;18.216;2023-06-26T00:21:56;11.30;;;8.70;;
57313;SDS011;53202;50.976;18.216;2023-06-26T00:24:22;13.20;;;9.10;;
57313;SDS011;53202;50.976;18.216;2023-06-26T00:26:48;13.20;;;7.80;;
57313;SDS011;53202;50.976;18.216;2023-06-26T00:29:15;13.60;;;8.50;;
57313;SDS011;53202;50.976;18.216;2023-06-26T00:31:41;12.60;;;8.70;;
57313;SDS011;53202;50.976;18.216;2023-06-26T00:34:07;12.80;;;8.60;;
57313;SDS011;53202;50.976;18.216;2023-06-26T00:36:33;13.00;;;9.10;;
57313;SDS011;53202;50.976;18.216;2023-06-26T00:38:59;15.40;;;9.10;;
57313;SDS011;53202;50.976;18.216;2023-06-26T00:41:26;10.60;;;8.30;;
57313;SDS011;53202;50.976;18.216;2023-06-26T00:43:52;17.50;;;9.20;;
57313;SDS011;53202;50.976;18.216;2023-06-26T00:46:18;11.00;;;8.60;;
57313;SDS011;53202;50.976;18.216;2023-06-26T00:59:34;9.90;;;6.90;;
57313;SDS011;53202;50.976;18.216;2023-06-26T01:09:18;7.70;;;6.70;;
57313;SDS011;53202;50.976;18.216;2023-06-26T01:19:01;11.60;;;8.20;;
57313;SDS011;53202;50.976;18.216;2023-06-26T01:28:50;10.40;;;7.00;;
57313;SDS011;53202;50.976;18.216;2023-06-26T01:38:33;19.60;;;6.90;;
57313;SDS011;53202;50.976;18.216;2023-06-26T01:48:19;9.40;;;7.90;;
57313;SDS011;53202;50.976;18.216;2023-06-26T01:58:03;9.70;;;7.60;;
57313;SDS011;53202;50.976;18.216;2023-06-26T02:07:46;13.70;;;9.50;;
57313;SDS011;53202;50.976;18.216;2023-06-26T02:24:46;9.20;;;7.80;;
57313;SDS011;53202;50.976;18.216;2023-06-26T02:34:29;15.70;;;9.30;;
57313;SDS011;53202;50.976;18.216;2023-06-26T02:44:12;5.90;;;4.60;;
57313;SDS011;53202;50.976;18.216;2023-06-26T02:53:56;6.60;;;5.40;;
57313;SDS011;53202;50.976;18.216;2023-06-26T03:03:40;23.00;;;6.90;;
57313;SDS011;53202;50.976;18.216;2023-06-26T03:13:24;7.30;;;5.50;;
57313;SDS011;53202;50.976;18.216;2023-06-26T03:23:06;13.20;;;10.50;;
57313;SDS011;53202;50.976;18.216;2023-06-26T03:32:49;9.60;;;8.60;;
57313;SDS011;53202;50.976;18.216;2023-06-26T03:42:32;21.80;;;7.70;;
57313;SDS011;53202;50.976;18.216;2023-06-26T03:52:15;12.20;;;8.20;;
57313;SDS011;53202;50.976;18.216;2023-06-26T04:01:57;34.00;;;10.00;;
57313;SDS011;53202;50.976;18.216;2023-06-26T04:11:41;10.60;;;9.30;;
57313;SDS011;53202;50.976;18.216;2023-06-26T04:21:24;8.80;;;8.10;;
57313;SDS011;53202;50.976;18.216;2023-06-26T04:31:07;11.10;;;8.50;;
57313;SDS011;53202;50.976;18.216;2023-06-26T04:40:54;31.30;;;8.90;;
57313;SDS011;53202;50.976;18.216;2023-06-26T04:50:36;7.90;;;7.10;;
57313;SDS011;53202;50.976;18.216;2023-06-26T05:00:19;8.90;;;7.90;;
57313;SDS011;53202;50.976;18.216;2023-06-26T05:10:02;9.10;;;8.20;;
57313;SDS011;53202;50.976;18.216;2023-06-26T05:19:47;19.10;;;10.20;;
57313;SDS011;53202;50.976;18.216;2023-06-26T05:29:30;14.00;;;9.60;;
57313;SDS011;53202;50.976;18.216;2023-06-26T05:39:13;25.20;;;9.40;;
57313;SDS011;53202;50.976;18.216;2023-06-26T05:48:55;46.60;;;9.60;;
57313;SDS011;53202;50.976;18.216;2023-06-26T05:58:37;8.90;;;8.00;;
57313;SDS011;53202;50.976;18.216;2023-06-26T06:08:20;18.50;;;8.60;;
57313;SDS011;53202;50.976;18.216;2023-06-26T06:18:02;11.70;;;9.90;;
57313;SDS011;53202;50.976;18.216;2023-06-26T06:27:45;12.00;;;8.20;;
57313;SDS011;53202;50.976;18.216;2023-06-26T06:37:35;8.10;;;7.30;;
57313;SDS011;53202;50.976;18.216;2023-06-26T06:47:18;9.70;;;6.80;;
57313;SDS011;53202;50.976;18.216;2023-06-26T06:57:01;5.60;;;5.10;;
57313;SDS011;53202;50.976;18.216;2023-06-26T07:06:43;8.00;;;7.20;;
57313;SDS011;53202;50.976;18.216;2023-06-26T07:16:26;4.30;;;3.70;;
57313;SDS011;53202;50.976;18.216;2023-06-26T07:26:09;3.10;;;2.10;;
57313;SDS011;53202;50.976;18.216;2023-06-26T07:35:52;9.30;;;6.10;;
57313;SDS011;53202;50.976;18.216;2023-06-26T07:45:35;5.70;;;4.20;;
57313;SDS011;53202;50.976;18.216;2023-06-26T07:55:18;5.40;;;3.20;;
57313;SDS011;53202;50.976;18.216;2023-06-26T08:05:02;4.40;;;4.00;;
57313;SDS011;53202;50.976;18.216;2023-06-26T08:14:45;2.80;;;2.10;;
57313;SDS011;53202;50.976;18.216;2023-06-26T08:24:28;2.90;;;2.40;;
57313;SDS011;53202;50.976;18.216;2023-06-26T08:34:11;2.50;;;1.80;;
57313;SDS011;53202;50.976;18.216;2023-06-26T08:43:55;4.50;;;3.50;;
57313;SDS011;53202;50.976;18.216;2023-06-26T09:03:38;1.90;;;1.80;;
57313;SDS011;53202;50.976;18.216;2023-06-26T09:13:21;5.90;;;4.50;;
57313;SDS011;53202;50.976;18.216;2023-06-26T09:23:05;8.40;;;3.60;;
57313;SDS011;53202;50.976;18.216;2023-06-26T09:32:47;4.40;;;2.40;;
57313;SDS011;53202;50.976;18.216;2023-06-26T09:42:32;4.40;;;3.40;;
57313;SDS011;53202;50.976;18.216;2023-06-26T09:52:16;3.90;;;3.60;;
57313;SDS011;53202;50.976;18.216;2023-06-26T10:02:01;5.90;;;5.30;;
57313;SDS011;53202;50.976;18.216;2023-06-26T10:12:01;21.50;;;4.70;;
57313;SDS011;53202;50.976;18.216;2023-06-26T10:21:51;3.20;;;2.90;;
57313;SDS011;53202;50.976;18.216;2023-06-26T10:31:34;4.60;;;2.70;;
57313;SDS011;53202;50.976;18.216;2023-06-26T10:41:20;3.70;;;3.20;;
57313;SDS011;53202;50.976;18.216;2023-06-26T10:51:13;2.00;;;1.90;;
57313;SDS011;53202;50.976;18.216;2023-06-26T11:10:59;13.80;;;4.10;;
57313;SDS011;53202;50.976;18.216;2023-06-26T11:20:43;3.70;;;3.40;;
57313;SDS011;53202;50.976;18.216;2023-06-26T11:30:26;2.60;;;2.40;;
57313;SDS011;53202;50.976;18.216;2023-06-26T11:40:16;3.40;;;3.10;;
57313;SDS011;53202;50.976;18.216;2023-06-26T11:50:00;4.20;;;3.80;;
57313;SDS011;53202;50.976;18.216;2023-06-26T12:10:04;6.40;;;4.40;;
57313;SDS011;53202;50.976;18.216;2023-06-26T12:19:52;4.00;;;3.70;;
57313;SDS011;53202;50.976;18.216;2023-06-26T12:29:36;4.50;;;3.80;;
57313;SDS011;53202;50.976;18.216;2023-06-26T12:39:20;3.70;;;3.00;;
57313;SDS011;53202;50.976;18.216;2023-06-26T12:49:04;3.70;;;3.40;;
57313;SDS011;53202;50.976;18.216;2023-06-26T12:58:48;7.30;;;3.30;;
57313;SDS011;53202;50.976;18.216;2023-06-26T13:08:31;2.30;;;2.10;;
57313;SDS011;53202;50.976;18.216;2023-06-26T13:18:14;3.20;;;2.60;;
57313;SDS011;53202;50.976;18.216;2023-06-26T13:27:57;4.10;;;3.50;;
57313;SDS011;53202;50.976;18.216;2023-06-26T13:37:41;2.60;;;2.50;;
57313;SDS011;53202;50.976;18.216;2023-06-26T13:47:24;2.30;;;2.10;;
57313;SDS011;53202;50.976;18.216;2023-06-26T13:57:07;15.90;;;3.10;;
57313;SDS011;53202;50.976;18.216;2023-06-26T14:06:50;4.20;;;3.20;;
57313;SDS011;53202;50.976;18.216;2023-06-26T14:16:32;2.10;;;1.90;;
57313;SDS011;53202;50.976;18.216;2023-06-26T14:26:15;13.80;;;2.80;;
57313;SDS011;53202;50.976;18.216;2023-06-26T14:35:57;1.20;;;1.10;;
57313;SDS011;53202;50.976;18.216;2023-06-26T14:45:40;1.90;;;1.80;;
57313;SDS011;53202;50.976;18.216;2023-06-26T14:55:22;3.70;;;3.40;;
57313;SDS011;53202;50.976;18.216;2023-06-26T15:05:05;2.90;;;2.70;;
57313;SDS011;53202;50.976;18.216;2023-06-26T15:14:49;5.80;;;2.70;;
57313;SDS011;53202;50.976;18.216;2023-06-26T15:24:32;2.10;;;1.40;;
57313;SDS011;53202;50.976;18.216;2023-06-26T15:34:14;4.20;;;3.80;;
57313;SDS011;53202;50.976;18.216;2023-06-26T15:43:58;3.80;;;3.50;;
57313;SDS011;53202;50.976;18.216;2023-06-26T15:53:40;5.00;;;3.00;;
57313;SDS011;53202;50.976;18.216;2023-06-26T16:03:23;2.80;;;2.60;;
57313;SDS011;53202;50.976;18.216;2023-06-26T16:13:06;5.40;;;2.90;;
57313;SDS011;53202;50.976;18.216;2023-06-26T16:22:48;2.30;;;1.70;;
57313;SDS011;53202;50.976;18.216;2023-06-26T16:32:31;1.50;;;1.40;;
57313;SDS011;53202;50.976;18.216;2023-06-26T16:42:14;33.70;;;3.20;;
57313;SDS011;53202;50.976;18.216;2023-06-26T16:51:57;1.90;;;1.40;;
57313;SDS011;53202;50.976;18.216;2023-06-26T17:01:41;2.70;;;2.50;;
57313;SDS011;53202;50.976;18.216;2023-06-26T17:11:23;9.70;;;8.70;;
57313;SDS011;53202;50.976;18.216;2023-06-26T17:21:06;2.20;;;1.80;;
57313;SDS011;53202;50.976;18.216;2023-06-26T17:30:49;12.60;;;2.10;;
57313;SDS011;53202;50.976;18.216;2023-06-26T17:40:33;5.10;;;2.10;;
57313;SDS011;53202;50.976;18.216;2023-06-26T17:50:16;2.80;;;2.60;;
57313;SDS011;53202;50.976;18.216;2023-06-26T17:59:58;2.30;;;1.90;;
57313;SDS011;53202;50.976;18.216;2023-06-26T18:09:42;10.20;;;3.20;;
57313;SDS011;53202;50.976;18.216;2023-06-26T18:19:25;7.20;;;4.20;;
57313;SDS011;53202;50.976;18.216;2023-06-26T18:29:08;3.90;;;3.60;;
57313;SDS011;53202;50.976;18.216;2023-06-26T18:38:53;3.00;;;2.70;;
57313;SDS011;53202;50.976;18.216;2023-06-26T18:41:19;8.40;;;4.10;;
57313;SDS011;53202;50.976;18.216;2023-06-26T18:51:04;28.20;;;3.60;;
57313;SDS011;53202;50.976;18.216;2023-06-26T19:00:48;8.20;;;4.30;;
57313;SDS011;53202;50.976;18.216;2023-06-26T19:10:32;8.10;;;5.00;;
57313;SDS011;53202;50.976;18.216;2023-06-26T19:20:18;7.60;;;5.30;;
57313;SDS011;53202;50.976;18.216;2023-06-26T19:30:02;8.40;;;2.80;;
57313;SDS011;53202;50.976;18.216;2023-06-26T19:39:46;5.30;;;3.60;;
57313;SDS011;53202;50.976;18.216;2023-06-26T19:49:30;5.60;;;4.00;;
57313;SDS011;53202;50.976;18.216;2023-06-26T19:59:18;12.70;;;5.30;;
57313;SDS011;53202;50.976;18.216;2023-06-26T20:09:04;3.60;;;3.30;;
57313;SDS011;53202;50.976;18.216;2023-06-26T20:18:49;6.00;;;3.70;;
57313;SDS011;53202;50.976;18.216;2023-06-26T20:28:34;8.80;;;5.80;;
57313;SDS011;53202;50.976;18.216;2023-06-26T20:38:18;5.80;;;4.40;;
57313;SDS011;53202;50.976;18.216;2023-06-26T20:48:02;3.30;;;3.00;;
57313;SDS011;53202;50.976;18.216;2023-06-26T20:57:46;3.10;;;1.50;;
57313;SDS011;53202;50.976;18.216;2023-06-26T21:07:29;5.10;;;3.50;;
57313;SDS011;53202;50.976;18.216;2023-06-26T21:17:14;5.50;;;4.60;;
57313;SDS011;53202;50.976;18.216;2023-06-26T21:26:56;6.80;;;4.50;;
57313;SDS011;53202;50.976;18.216;2023-06-26T21:36:41;17.60;;;4.70;;
57313;SDS011;53202;50.976;18.216;2023-06-26T21:46:24;61.10;;;10.60;;
57313;SDS011;53202;50.976;18.216;2023-06-26T21:56:07;7.50;;;4.00;;
57313;SDS011;53202;50.976;18.216;2023-06-26T22:05:50;23.50;;;6.00;;
57313;SDS011;53202;50.976;18.216;2023-06-26T22:15:33;5.30;;;4.80;;
57313;SDS011;53202;50.976;18.216;2023-06-26T22:25:17;10.70;;;6.40;;
57313;SDS011;53202;50.976;18.216;2023-06-26T22:35:00;14.40;;;8.40;;
57313;SDS011;53202;50.976;18.216;2023-06-26T22:44:42;7.70;;;7.00;;
57313;SDS011;53202;50.976;18.216;2023-06-26T22:54:27;11.60;;;7.00;;
57313;SDS011;53202;50.976;18.216;2023-06-26T23:04:09;36.30;;;8.50;;
57313;SDS011;53202;50.976;18.216;2023-06-26T23:13:51;7.70;;;6.50;;
57313;SDS011;53202;50.976;18.216;2023-06-26T23:23:34;10.70;;;7.80;;
57313;SDS011;53202;50.976;18.216;2023-06-26T23:33:23;29.90;;;8.70;;
57313;SDS011;53202;50.976;18.216;2023-06-26T23:43:10;7.60;;;6.40;;
57313;SDS011;53202;50.976;18.216;2023-06-26T23:52:55;8.80;;;8.10;;
